TAF Benelux - 23 Oct 2017 - 0947 UTC - RocketRoute WX - rrwx.com
EBBR 230500Z 2306/2412 24009KT 9999 FEW025 BKN040 BECMG 2314/2316 4500 -RADZ BR SCT007 BKN012 TEMPO 2319/2324 2000 DZRA BKN004 PROB30 TEMPO 2402/2408 2000 BR BKN003 PROB30 TEMPO 2408/2411 7000 NSW SCT010 BKN040 EBCI 230500Z 2306/2412 24009KT 9999 FEW020 BKN035 BECMG 2313/2315 4000 -RADZ BR SCT005 BKN008 TEMPO 2319/2401 2000 DZRA BKN003 PROB40 TEMPO 2401/2407 1500 BR BKN002 PROB30 TEMPO 2408/2410 6000 NSW SCT008 BKN030 EBAW 230807Z 2309/2318 25009KT 9999 SCT020 BECMG 2316/2318 4500 -RADZ SCT008 BKN012 EBLG 230500Z 2306/2412 25009KT 9999 FEW025 SCT040 BECMG 2316/2318 4500 -RADZ BR SCT006 BKN009 TEMPO 2321/2402 2000 DZRA BKN004 PROB30 TEMPO 2402/2407 2000 BR BKN003 BECMG 2407/2409 7000 NSW FEW010 SCT040 EBOS 230500Z 2306/2412 27012KT 9999 SCT020 BKN030 BECMG 2309/2311 21010KT BECMG 2312/2314 4500 -RADZ SCT007 BKN010 PROB40 TEMPO 2314/2318 2500 DZRA BKN004 BECMG 2319/2321 7000 NSW FEW012 SCT040 TEMPO 2320/2403 27010KT TEMPO 2407/2411 3500 RA RADZ BKN006 BECMG 2410/2412 23015G25KT EHEH 230552Z 2306/2412 23009KT 9999 SCT020 BKN025 BECMG 2315/2318 20006KT BECMG 2317/2320 7000 -RADZ SCT008 BKN010 BECMG 2320/2322 4500 BR DZRA BKN005 TEMPO 2321/2412 3000 DZRA PROB30 TEMPO 2322/2412 1200 +DZRA SCT002 OVC004 EHGG 230452Z 2306/2412 24012KT 9999 BKN020 PROB40 TEMPO 2306/2311 25017G27KT 6000 -RADZ -SHRA BKN012 SCT020TCU BECMG 2309/2311 27013KT BECMG 2316/2319 22005KT BECMG 2321/2324 3500 -DZRA BKN005 BECMG 2401/2403 2000 BR -DZ BKN003 PROB30 TEMPO 2401/2412 5000 BKN005 BECMG 2410/2412 21011KT 5000 BKN005 EHBK 230452Z 2306/2412 23009KT 9999 BKN035 BECMG 2319/2322 6000 -DZRA BKN007 PROB40 TEMPO 2320/2412 2500 DZ BKN003 EHRD 230445Z 2306/2412 27013KT 9999 SCT020 BKN040 BECMG 2314/2317 23007KT BECMG 2317/2320 20010KT 6000 -DZRA SCT006 BKN012 TEMPO 2319/2412 3500 DZ BKN006 PROB40 TEMPO 2400/2409 2500 BR BKN004 BECMG 2410/2412 22015KT EHAM 230445Z 2306/2412 27014KT 9999 SCT020 BKN040 BECMG 2313/2316 23008KT BECMG 2318/2321 20010KT 6000 -DZRA SCT006 BKN012 TEMPO 2320/2412 3500 DZ BKN006 PROB40 TEMPO 2400/2409 2500 BR BKN004 BECMG 2410/2412 22015KT ELLX 230500Z 2306/2412 26008KT 9999 BKN007 TEMPO 2313/2409 2000 -DZRA BKN004 TEMPO 2409/2412 4000 RA BKN006

RocketRoute WX - rrwx.com weather for pilots